Time,TemperatureF,DewpointF,PressureIn,WindDirection,WindDirectionDegrees,WindSpeedMPH,WindSpeedGustMPH,Humidity,HourlyPrecipIn,Conditions,Clouds,dailyrainin,SolarRadiationWatts/m^2,SoftwareType,DateUTC
2013-01-05 00:01:00,11.3,7.4,30.61,East,92,0.0,0.0,84,0.00,,CLR,0.00,0.00,VWS V14.01,2013-01-05 08:01:00,
2013-01-05 00:06:00,11.2,7.3,30.62,East,92,0.0,0.0,84,0.00,,CLR,0.00,0.00,VWS V14.01,2013-01-05 08:06:00,
2013-01-05 00:11:00,11.1,7.2,30.62,East,92,0.0,0.0,84,0.00,,CLR,0.00,0.00,VWS V14.01,2013-01-05 08:11:00,
2013-01-05 00:16:00,11.0,7.1,30.61,East,92,0.0,0.0,84,0.00,,CLR,0.00,0.00,VWS V14.01,2013-01-05 08:16:00,
2013-01-05 00:21:00,10.8,6.9,30.61,East,92,0.0,0.0,84,0.00,,CLR,0.00,0.00,VWS V14.01,2013-01-05 08:21:00,
2013-01-05 00:26:00,10.7,7.1,30.62,East,92,0.0,0.0,85,0.00,,CLR,0.00,0.00,VWS V14.01,2013-01-05 08:26:00,
2013-01-05 00:31:00,10.6,6.7,30.61,East,92,0.0,0.0,84,0.00,,CLR,0.00,0.00,VWS V14.01,2013-01-05 08:31:00,
2013-01-05 00:36:00,10.5,6.9,30.61,East,92,0.0,0.0,85,0.00,,CLR,0.00,0.00,VWS V14.01,2013-01-05 08:36:00,
2013-01-05 00:41:00,10.4,6.8,30.61,East,92,0.0,0.0,85,0.00,,CLR,0.00,0.00,VWS V14.01,2013-01-05 08:41:00,
2013-01-05 00:46:00,10.3,6.7,30.61,East,92,0.0,0.0,85,0.00,,CLR,0.00,0.00,VWS V14.01,2013-01-05 08:46:00,
2013-01-05 00:51:00,10.3,6.7,30.61,East,92,0.0,0.0,85,0.00,,CLR,0.00,0.00,VWS V14.01,2013-01-05 08:51:00,
2013-01-05 00:56:00,10.2,6.6,30.61,East,92,0.0,0.0,85,0.00,,CLR,0.00,0.00,VWS V14.01,2013-01-05 08:56:00,
2013-01-05 01:01:00,10.1,6.5,30.61,East,92,0.0,0.0,85,0.00,,CLR,0.00,0.00,VWS V14.01,2013-01-05 09:01:00,
2013-01-05 01:06:00,10.0,6.4,30.61,East,92,0.0,0.0,85,0.00,,CLR,0.00,0.00,VWS V14.01,2013-01-05 09:06:00,
2013-01-05 01:11:00,9.8,6.2,30.61,East,92,0.0,0.0,85,0.00,,CLR,0.00,0.00,VWS V14.01,2013-01-05 09:11:00,
2013-01-05 01:16:00,9.8,6.2,30.61,East,92,0.0,0.0,85,0.00,,CLR,0.00,0.00,VWS V14.01,2013-01-05 09:16:00,
2013-01-05 01:21:00,9.7,6.4,30.61,East,92,0.0,0.0,86,0.00,,CLR,0.00,0.00,VWS V14.01,2013-01-05 09:21:00,
2013-01-05 01:26:00,9.7,6.4,30.61,East,92,0.0,0.0,86,0.00,,CLR,0.00,0.00,VWS V14.01,2013-01-05 09:26:00,
2013-01-05 01:31:00,9.7,6.4,30.62,East,92,0.0,0.0,86,0.00,,CLR,0.00,0.00,VWS V14.01,2013-01-05 09:31:00,
2013-01-05 01:36:00,9.6,6.3,30.62,East,92,0.0,0.0,86,0.00,,CLR,0.00,0.00,VWS V14.01,2013-01-05 09:36:00,
2013-01-05 01:41:00,9.6,6.3,30.62,East,92,0.0,0.0,86,0.00,,CLR,0.00,0.00,VWS V14.01,2013-01-05 09:41:00,
2013-01-05 01:46:00,9.5,6.2,30.62,East,92,0.0,0.0,86,0.00,,CLR,0.00,0.00,VWS V14.01,2013-01-05 09:46:00,
2013-01-05 01:51:00,9.5,6.2,30.62,East,92,0.0,0.0,86,0.00,,CLR,0.00,0.00,VWS V14.01,2013-01-05 09:51:00,
2013-01-05 01:56:00,9.4,6.1,30.62,East,92,0.0,0.0,86,0.00,,CLR,0.00,0.00,VWS V14.01,2013-01-05 09:56:00,
2013-01-05 02:01:00,9.3,6.0,30.61,East,92,0.0,0.0,86,0.00,,CLR,0.00,0.00,VWS V14.01,2013-01-05 10:01:00,
2013-01-05 02:06:00,9.3,6.0,30.61,East,92,0.0,0.0,86,0.00,,CLR,0.00,0.00,VWS V14.01,2013-01-05 10:06:00,
2013-01-05 02:11:00,9.2,5.9,30.61,East,92,0.0,0.0,86,0.00,,CLR,0.00,0.00,VWS V14.01,2013-01-05 10:11:00,
2013-01-05 02:16:00,9.1,5.8,30.61,East,92,0.0,0.0,86,0.00,,CLR,0.00,0.00,VWS V14.01,2013-01-05 10:16:00,
2013-01-05 02:21:00,9.0,5.7,30.61,East,92,0.0,0.0,86,0.00,,CLR,0.00,0.00,VWS V14.01,2013-01-05 10:21:00,
2013-01-05 02:26:00,8.9,5.6,30.61,East,92,0.0,0.0,86,0.00,,CLR,0.00,0.00,VWS V14.01,2013-01-05 10:26:00,
2013-01-05 02:31:00,8.8,5.5,30.61,East,92,0.0,0.0,86,0.00,,CLR,0.00,0.00,VWS V14.01,2013-01-05 10:31:00,
2013-01-05 02:36:00,8.8,5.5,30.61,East,92,0.0,0.0,86,0.00,,CLR,0.00,0.00,VWS V14.01,2013-01-05 10:36:00,
2013-01-05 02:41:00,8.9,5.6,30.61,East,92,0.0,0.0,86,0.00,,CLR,0.00,0.00,VWS V14.01,2013-01-05 10:41:00,
2013-01-05 02:46:00,8.9,5.8,30.61,East,92,0.0,0.0,87,0.00,,CLR,0.00,0.00,VWS V14.01,2013-01-05 10:46:00,
2013-01-05 02:51:00,8.9,5.8,30.61,East,92,0.0,0.0,87,0.00,,CLR,0.00,0.00,VWS V14.01,2013-01-05 10:51:00,
2013-01-05 02:56:00,8.8,5.7,30.61,East,92,0.0,0.0,87,0.00,,CLR,0.00,0.00,VWS V14.01,2013-01-05 10:56:00,
2013-01-05 03:01:00,8.7,5.6,30.61,East,92,0.0,0.0,87,0.00,,CLR,0.00,0.00,VWS V14.01,2013-01-05 11:01:00,
2013-01-05 03:06:00,8.6,5.5,30.60,East,92,0.0,0.0,87,0.00,,CLR,0.00,0.00,VWS V14.01,2013-01-05 11:06:00,
2013-01-05 03:11:00,8.5,5.4,30.60,East,92,0.0,0.0,87,0.00,,CLR,0.00,0.00,VWS V14.01,2013-01-05 11:11:00,
2013-01-05 03:16:00,8.4,5.3,30.60,East,92,0.0,0.0,87,0.00,,CLR,0.00,0.00,VWS V14.01,2013-01-05 11:16:00,
2013-01-05 03:21:00,8.4,5.3,30.60,East,92,0.0,0.0,87,0.00,,CLR,0.00,0.00,VWS V14.01,2013-01-05 11:21:00,
2013-01-05 03:26:00,8.3,5.2,30.60,East,92,0.0,0.0,87,0.00,,CLR,0.00,0.00,VWS V14.01,2013-01-05 11:26:00,
2013-01-05 03:31:00,8.3,5.2,30.60,East,92,0.0,0.0,87,0.00,,CLR,0.00,0.00,VWS V14.01,2013-01-05 11:31:00,
2013-01-05 03:36:00,8.3,5.2,30.59,East,92,0.0,0.0,87,0.00,,CLR,0.00,0.00,VWS V14.01,2013-01-05 11:36:00,
2013-01-05 03:41:00,8.2,5.1,30.59,East,92,0.0,0.0,87,0.00,,CLR,0.00,0.00,VWS V14.01,2013-01-05 11:41:00,
2013-01-05 03:46:00,8.2,5.1,30.59,East,92,0.0,0.0,87,0.00,,CLR,0.00,0.00,VWS V14.01,2013-01-05 11:46:00,
2013-01-05 03:52:00,8.1,5.0,30.59,East,92,0.0,0.0,87,0.00,,CLR,0.00,0.00,VWS V14.01,2013-01-05 11:52:00,
2013-01-05 03:56:00,8.0,4.9,30.59,East,92,0.0,0.0,87,0.00,,CLR,0.00,0.00,VWS V14.01,2013-01-05 11:56:00,
2013-01-05 04:01:00,7.9,4.8,30.59,East,92,0.0,0.0,87,0.00,,,0.00,0.00,VWS V14.01,2013-01-05 12:01:00,
2013-01-05 04:07:00,7.7,4.7,30.59,East,92,0.0,0.0,87,0.00,,,0.00,0.00,VWS V14.01,2013-01-05 12:07:00,
2013-01-05 04:12:00,7.6,4.3,30.59,East,92,0.0,0.0,86,0.00,,,0.00,0.00,VWS V14.01,2013-01-05 12:12:00,
2013-01-05 04:17:00,7.6,4.3,30.59,East,92,0.0,0.0,86,0.00,,,0.00,0.00,VWS V14.01,2013-01-05 12:17:00,
2013-01-05 04:22:00,7.6,4.3,30.59,East,92,0.0,0.0,86,0.00,,,0.00,0.00,VWS V14.01,2013-01-05 12:22:00,
2013-01-05 04:27:00,7.6,4.3,30.59,East,92,0.0,0.0,86,0.00,,,0.00,0.00,VWS V14.01,2013-01-05 12:27:00,
2013-01-05 04:32:00,7.5,4.2,30.58,East,92,0.0,0.0,86,0.00,,,0.00,0.00,VWS V14.01,2013-01-05 12:32:00,
2013-01-05 04:37:00,7.5,4.2,30.59,East,92,0.0,0.0,86,0.00,,,0.00,0.00,VWS V14.01,2013-01-05 12:37:00,
2013-01-05 04:42:00,7.5,4.4,30.59,East,92,0.0,0.0,87,0.00,,,0.00,0.00,VWS V14.01,2013-01-05 12:42:00,
2013-01-05 04:47:00,7.5,4.4,30.59,East,92,0.0,0.0,87,0.00,,,0.00,0.00,VWS V14.01,2013-01-05 12:47:00,
2013-01-05 04:52:00,7.5,4.4,30.59,East,92,0.0,0.0,87,0.00,,,0.00,0.00,VWS V14.01,2013-01-05 12:52:00,
2013-01-05 04:57:00,7.6,4.6,30.59,East,92,0.0,0.0,87,0.00,,,0.00,0.00,VWS V14.01,2013-01-05 12:57:00,
2013-01-05 05:02:00,7.5,4.4,30.59,East,92,0.0,0.0,87,0.00,,,0.00,0.00,VWS V14.01,2013-01-05 13:02:00,
2013-01-05 05:07:00,7.5,4.4,30.59,East,92,0.0,0.0,87,0.00,,,0.00,0.00,VWS V14.01,2013-01-05 13:07:00,
2013-01-05 05:12:00,7.5,4.4,30.59,East,92,0.0,0.0,87,0.00,,,0.00,0.00,VWS V14.01,2013-01-05 13:12:00,
2013-01-05 05:17:00,7.5,4.4,30.59,East,92,0.0,0.0,87,0.00,,,0.00,0.00,VWS V14.01,2013-01-05 13:17:00,
2013-01-05 05:22:00,7.6,4.6,30.59,East,92,0.0,0.0,87,0.00,,,0.00,0.00,VWS V14.01,2013-01-05 13:22:00,
2013-01-05 05:27:00,7.5,4.4,30.59,East,92,0.0,0.0,87,0.00,,,0.00,0.00,VWS V14.01,2013-01-05 13:27:00,
2013-01-05 05:32:00,7.5,4.4,30.59,East,92,0.0,0.0,87,0.00,,,0.00,0.00,VWS V14.01,2013-01-05 13:32:00,
2013-01-05 05:37:00,7.5,4.4,30.59,East,92,0.0,0.0,87,0.00,,,0.00,0.00,VWS V14.01,2013-01-05 13:37:00,
2013-01-05 05:42:00,7.5,4.4,30.59,East,92,0.0,0.0,87,0.00,,,0.00,0.00,VWS V14.01,2013-01-05 13:42:00,
2013-01-05 05:47:00,7.5,4.4,30.59,East,92,0.0,0.0,87,0.00,,,0.00,0.00,VWS V14.01,2013-01-05 13:47:00,
2013-01-05 05:52:00,7.5,4.4,30.59,East,92,0.0,0.0,87,0.00,,,0.00,0.00,VWS V14.01,2013-01-05 13:52:00,
2013-01-05 05:57:00,7.5,4.4,30.59,East,92,0.0,0.0,87,0.00,,,0.00,0.00,VWS V14.01,2013-01-05 13:57:00,
2013-01-05 06:02:00,7.5,4.4,30.59,East,92,0.0,0.0,87,0.00,,,0.00,0.00,VWS V14.01,2013-01-05 14:02:00,
2013-01-05 06:07:00,7.5,4.4,30.59,East,92,0.0,0.0,87,0.00,,,0.00,0.00,VWS V14.01,2013-01-05 14:07:00,
2013-01-05 06:12:00,7.6,4.6,30.59,East,92,0.0,0.0,87,0.00,,,0.00,0.00,VWS V14.01,2013-01-05 14:12:00,
2013-01-05 06:17:00,7.6,4.6,30.59,East,92,0.0,0.0,87,0.00,,,0.00,0.00,VWS V14.01,2013-01-05 14:17:00,
2013-01-05 06:22:00,7.6,4.6,30.59,East,92,0.0,0.0,87,0.00,,,0.00,0.00,VWS V14.01,2013-01-05 14:22:00,
2013-01-05 06:27:00,7.7,4.7,30.59,East,92,0.0,0.0,87,0.00,,,0.00,0.00,VWS V14.01,2013-01-05 14:27:00,
2013-01-05 06:32:00,7.6,4.6,30.59,East,92,0.0,0.0,87,0.00,,,0.00,0.00,VWS V14.01,2013-01-05 14:32:00,
2013-01-05 06:37:00,7.6,4.6,30.59,East,92,0.0,0.0,87,0.00,,,0.00,0.00,VWS V14.01,2013-01-05 14:37:00,
2013-01-05 06:42:00,7.6,4.6,30.58,East,92,0.0,0.0,87,0.00,,,0.00,0.00,VWS V14.01,2013-01-05 14:42:00,
2013-01-05 06:47:00,7.6,4.6,30.59,East,92,0.0,0.0,87,0.00,,,0.00,0.00,VWS V14.01,2013-01-05 14:47:00,
2013-01-05 06:52:00,7.6,4.6,30.59,East,92,0.0,0.0,87,0.00,,,0.00,0.00,VWS V14.01,2013-01-05 14:52:00,
2013-01-05 06:57:00,7.6,4.6,30.59,East,92,0.0,0.0,87,0.00,,,0.00,0.00,VWS V14.01,2013-01-05 14:57:00,
2013-01-05 07:02:00,7.6,4.6,30.58,East,92,0.0,0.0,87,0.00,,,0.00,0.00,VWS V14.01,2013-01-05 15:02:00,
2013-01-05 07:07:00,7.5,4.4,30.58,East,92,0.0,0.0,87,0.00,,,0.00,0.00,VWS V14.01,2013-01-05 15:07:00,
2013-01-05 07:12:00,7.2,3.9,30.58,East,92,0.0,0.0,86,0.00,,,0.00,0.00,VWS V14.01,2013-01-05 15:12:00,
2013-01-05 07:17:00,7.2,3.9,30.59,East,92,0.0,0.0,86,0.00,,,0.00,7.00,VWS V14.01,2013-01-05 15:17:00,
2013-01-05 07:22:00,7.2,3.9,30.58,East,92,0.0,0.0,86,0.00,,,0.00,12.00,VWS V14.01,2013-01-05 15:22:00,
2013-01-05 07:27:00,7.2,4.2,30.58,East,92,0.0,0.0,87,0.00,,,0.00,16.00,VWS V14.01,2013-01-05 15:27:00,
2013-01-05 07:32:00,7.4,4.3,30.58,East,92,0.0,0.0,87,0.00,,,0.00,21.00,VWS V14.01,2013-01-05 15:32:00,
2013-01-05 07:37:00,7.8,4.7,30.59,East,92,0.0,0.0,87,0.00,,,0.00,26.00,VWS V14.01,2013-01-05 15:37:00,
2013-01-05 07:42:00,8.3,5.2,30.59,East,92,0.0,0.0,87,0.00,,,0.00,33.00,VWS V14.01,2013-01-05 15:42:00,
2013-01-05 07:47:00,9.2,6.4,30.59,East,92,0.0,0.0,88,0.00,,,0.00,39.00,VWS V14.01,2013-01-05 15:47:00,
2013-01-05 07:52:00,9.5,6.4,30.59,East,92,0.0,0.0,87,0.00,,,0.00,42.00,VWS V14.01,2013-01-05 15:52:00,
2013-01-05 07:57:00,9.6,6.3,30.59,East,92,0.0,0.0,86,0.00,,,0.00,51.00,VWS V14.01,2013-01-05 15:57:00,
2013-01-05 08:02:00,10.3,7.2,30.58,East,92,0.0,0.0,87,0.00,,,0.00,60.00,VWS V14.01,2013-01-05 16:02:00,
2013-01-05 08:07:00,10.9,7.8,30.59,East,92,0.0,0.0,87,0.00,,,0.00,74.00,VWS V14.01,2013-01-05 16:07:00,
2013-01-05 08:12:00,11.2,8.1,30.58,East,92,0.0,0.0,87,0.00,,,0.00,86.00,VWS V14.01,2013-01-05 16:12:00,
2013-01-05 08:17:00,13.4,10.8,30.58,East,92,0.0,0.0,89,0.00,,,0.00,100.00,VWS V14.01,2013-01-05 16:17:00,
2013-01-05 08:22:00,14.1,11.2,30.58,East,92,0.0,0.0,88,0.00,,,0.00,114.00,VWS V14.01,2013-01-05 16:22:00,
2013-01-05 08:27:00,14.7,11.8,30.58,East,92,0.0,1.0,88,0.00,,,0.00,113.00,VWS V14.01,2013-01-05 16:27:00,
2013-01-05 08:32:00,15.2,12.0,30.58,East,92,0.0,1.0,87,0.00,,,0.00,120.00,VWS V14.01,2013-01-05 16:32:00,
2013-01-05 08:37:00,15.4,12.0,30.58,SE,144,0.0,0.0,86,0.00,,,0.00,132.00,VWS V14.01,2013-01-05 16:37:00,
2013-01-05 08:42:00,15.4,11.7,30.58,SE,144,0.0,1.0,85,0.00,,,0.00,141.00,VWS V14.01,2013-01-05 16:42:00,
2013-01-05 08:48:00,15.5,11.3,30.58,SSE,153,0.0,2.0,83,0.00,,,0.00,153.00,VWS V14.01,2013-01-05 16:48:00,
2013-01-05 08:52:00,15.9,11.9,30.58,SSE,153,0.0,1.0,84,0.00,,,0.00,176.00,VWS V14.01,2013-01-05 16:52:00,
2013-01-05 08:57:00,16.2,12.2,30.58,SSE,153,0.0,0.0,84,0.00,,,0.00,162.00,VWS V14.01,2013-01-05 16:57:00,
2013-01-05 09:03:00,17.0,13.0,30.58,SSE,153,0.0,1.0,84,0.00,,CLR,0.00,163.00,VWS V14.01,2013-01-05 17:03:00,
2013-01-05 09:08:00,16.8,12.3,30.58,SSE,153,0.0,0.0,82,0.00,,BKN200,0.00,155.00,VWS V14.01,2013-01-05 17:08:00,
2013-01-05 09:13:00,16.9,12.4,30.58,SSE,153,0.0,1.0,82,0.00,,BKN200,0.00,185.00,VWS V14.01,2013-01-05 17:13:00,
2013-01-05 09:18:00,17.3,12.8,30.58,SSE,153,0.0,1.0,82,0.00,,BKN200,0.00,236.00,VWS V14.01,2013-01-05 17:18:00,
2013-01-05 09:23:00,17.6,12.8,30.59,SSE,153,0.0,0.0,81,0.00,,BKN200,0.00,207.00,VWS V14.01,2013-01-05 17:23:00,
2013-01-05 09:28:00,17.9,13.4,30.58,SSE,153,0.0,0.0,82,0.00,,BKN200,0.00,181.00,VWS V14.01,2013-01-05 17:28:00,
2013-01-05 09:33:00,18.1,13.5,30.58,SSE,161,0.0,1.0,82,0.00,,BKN200,0.00,183.00,VWS V14.01,2013-01-05 17:33:00,
2013-01-05 09:38:00,18.2,13.4,30.58,SSE,160,0.0,0.0,81,0.00,,BKN200,0.00,246.00,VWS V14.01,2013-01-05 17:38:00,
2013-01-05 09:43:00,18.0,13.2,30.58,SSE,161,0.0,0.0,81,0.00,,BKN200,0.00,306.00,VWS V14.01,2013-01-05 17:43:00,
2013-01-05 09:48:00,20.0,15.4,30.58,SSE,161,0.0,1.0,82,0.00,,BKN200,0.00,332.00,VWS V14.01,2013-01-05 17:48:00,
2013-01-05 09:53:00,20.5,14.7,30.58,SSE,161,0.0,1.0,78,0.00,,BKN200,0.00,301.00,VWS V14.01,2013-01-05 17:53:00,
2013-01-05 09:58:00,21.1,15.6,30.58,SSE,161,0.0,1.0,79,0.00,,BKN200,0.00,334.00,VWS V14.01,2013-01-05 17:58:00,
2013-01-05 10:03:00,20.2,14.2,30.58,East,101,2.0,2.0,77,0.00,,BKN200,0.00,325.00,VWS V14.01,2013-01-05 18:03:00,
2013-01-05 10:08:00,20.3,14.3,30.58,East,101,0.0,0.0,77,0.00,,BKN200,0.00,308.00,VWS V14.01,2013-01-05 18:08:00,
2013-01-05 10:13:00,21.1,15.0,30.58,East,101,0.0,2.0,77,0.00,,BKN200,0.00,362.00,VWS V14.01,2013-01-05 18:13:00,
2013-01-05 10:18:00,21.5,14.5,30.58,East,101,0.0,2.0,74,0.00,,BKN200,0.00,329.00,VWS V14.01,2013-01-05 18:18:00,
2013-01-05 10:23:00,21.4,14.7,30.57,East,101,0.0,1.0,75,0.00,,BKN200,0.00,364.00,VWS V14.01,2013-01-05 18:23:00,
2013-01-05 10:28:00,20.8,13.8,30.57,East,94,0.0,2.0,74,0.00,,BKN200,0.00,359.00,VWS V14.01,2013-01-05 18:28:00,
2013-01-05 10:33:00,21.5,14.8,30.57,East,82,2.0,2.0,75,0.00,,BKN200,0.00,244.00,VWS V14.01,2013-01-05 18:33:00,
2013-01-05 10:38:00,21.3,14.6,30.56,East,82,0.0,1.0,75,0.00,,BKN200,0.00,350.00,VWS V14.01,2013-01-05 18:38:00,
2013-01-05 10:43:00,21.3,14.6,30.56,NE,49,0.0,4.0,75,0.00,,BKN200,0.00,301.00,VWS V14.01,2013-01-05 18:43:00,
2013-01-05 10:48:00,23.2,15.5,30.56,NE,51,0.0,1.0,72,0.00,,BKN200,0.00,237.00,VWS V14.01,2013-01-05 18:48:00,
2013-01-05 10:53:00,23.4,15.4,30.56,ENE,65,2.0,2.0,71,0.00,,BKN200,0.00,327.00,VWS V14.01,2013-01-05 18:53:00,
2013-01-05 10:58:00,22.3,14.7,30.55,ENE,65,0.0,2.0,72,0.00,,BKN200,0.00,387.00,VWS V14.01,2013-01-05 18:58:00,
2013-01-05 11:03:00,23.4,15.7,30.55,SE,124,0.0,2.0,72,0.00,,BKN200,0.00,367.00,VWS V14.01,2013-01-05 19:03:00,
2013-01-05 11:08:00,25.3,16.9,30.54,East,99,1.0,3.0,70,0.00,,BKN200,0.00,443.00,VWS V14.01,2013-01-05 19:08:00,
2013-01-05 11:13:00,24.6,15.2,30.54,East,99,0.0,0.0,67,0.00,,BKN200,0.00,432.00,VWS V14.01,2013-01-05 19:13:00,
2013-01-05 11:18:00,25.8,17.0,30.54,East,99,0.0,1.0,69,0.00,,BKN200,0.00,404.00,VWS V14.01,2013-01-05 19:18:00,
2013-01-05 11:23:00,24.9,15.2,30.53,ENE,60,0.0,3.0,66,0.00,,BKN200,0.00,417.00,VWS V14.01,2013-01-05 19:23:00,
2013-01-05 11:28:00,23.7,15.0,30.52,ENE,60,0.0,1.0,69,0.00,,BKN200,0.00,454.00,VWS V14.01,2013-01-05 19:28:00,
2013-01-05 11:33:00,25.1,16.0,30.52,ENE,75,0.0,3.0,68,0.00,,BKN200,0.00,434.00,VWS V14.01,2013-01-05 19:33:00,
2013-01-05 11:38:00,26.3,17.2,30.52,SE,130,2.0,4.0,68,0.00,,BKN200,0.00,473.00,VWS V14.01,2013-01-05 19:38:00,
2013-01-05 11:43:00,26.7,16.9,30.52,ESE,109,2.0,3.0,66,0.00,,BKN200,0.00,462.00,VWS V14.01,2013-01-05 19:43:00,
2013-01-05 11:48:00,26.1,16.0,30.51,East,87,0.0,2.0,65,0.00,,BKN200,0.00,439.00,VWS V14.01,2013-01-05 19:48:00,
2013-01-05 11:53:00,26.1,16.0,30.51,NE,55,1.0,3.0,65,0.00,,BKN200,0.00,450.00,VWS V14.01,2013-01-05 19:53:00,
2013-01-05 11:58:00,26.1,16.0,30.50,NNE,23,2.0,3.0,65,0.00,,BKN200,0.00,427.00,VWS V14.01,2013-01-05 19:58:00,
2013-01-05 12:03:00,27.0,17.5,30.50,NNW,327,0.0,2.0,67,0.00,,BKN200,0.00,394.00,VWS V14.01,2013-01-05 20:03:00,
2013-01-05 12:08:00,26.4,15.9,30.49,NNW,327,0.0,2.0,64,0.00,,BKN200,0.00,432.00,VWS V14.01,2013-01-05 20:08:00,
2013-01-05 12:13:00,26.4,16.9,30.49,NNW,327,0.0,2.0,67,0.00,,BKN200,0.00,360.00,VWS V14.01,2013-01-05 20:13:00,
2013-01-05 12:18:00,27.3,16.8,30.49,NE,35,1.0,4.0,64,0.00,,BKN200,0.00,367.00,VWS V14.01,2013-01-05 20:18:00,
2013-01-05 12:23:00,26.3,16.5,30.49,NE,46,4.0,4.0,66,0.00,,BKN200,0.00,360.00,VWS V14.01,2013-01-05 20:23:00,
2013-01-05 12:28:00,25.7,15.9,30.48,NE,53,0.0,3.0,66,0.00,,BKN200,0.00,346.00,VWS V14.01,2013-01-05 20:28:00,
2013-01-05 12:33:00,25.9,16.5,30.48,North,5,2.0,4.0,67,0.00,,BKN200,0.00,311.00,VWS V14.01,2013-01-05 20:33:00,
2013-01-05 12:38:00,26.1,16.3,30.48,NE,49,1.0,4.0,66,0.00,,BKN200,0.00,376.00,VWS V14.01,2013-01-05 20:38:00,
2013-01-05 12:43:00,27.1,17.3,30.48,NE,47,0.0,4.0,66,0.00,,BKN200,0.00,362.00,VWS V14.01,2013-01-05 20:43:00,
2013-01-05 12:48:00,27.1,16.9,30.47,ENE,61,0.0,3.0,65,0.00,,BKN200,0.00,401.00,VWS V14.01,2013-01-05 20:48:00,
2013-01-05 12:53:00,27.9,17.0,30.47,East,85,0.0,3.0,63,0.00,,BKN200,0.00,309.00,VWS V14.01,2013-01-05 20:53:00,
2013-01-05 12:58:00,27.2,15.9,30.47,East,85,1.0,1.0,62,0.00,,BKN200,0.00,309.00,VWS V14.01,2013-01-05 20:58:00,
2013-01-05 13:03:00,27.1,16.6,30.47,ENE,67,2.0,2.0,64,0.00,,BKN200,0.00,306.00,VWS V14.01,2013-01-05 21:03:00,
2013-01-05 13:08:00,27.7,17.1,30.47,ENE,67,0.0,0.0,64,0.00,,BKN200,0.00,281.00,VWS V14.01,2013-01-05 21:08:00,
2013-01-05 13:13:00,28.1,17.1,30.46,East,79,2.0,3.0,63,0.00,,BKN200,0.00,264.00,VWS V14.01,2013-01-05 21:13:00,
2013-01-05 13:18:00,27.6,16.7,30.46,East,84,0.0,3.0,63,0.00,,BKN200,0.00,309.00,VWS V14.01,2013-01-05 21:18:00,
2013-01-05 13:23:00,27.6,16.7,30.46,East,84,0.0,1.0,63,0.00,,BKN200,0.00,374.00,VWS V14.01,2013-01-05 21:23:00,
2013-01-05 13:28:00,27.6,16.7,30.46,NE,55,3.0,5.0,63,0.00,,BKN200,0.00,418.00,VWS V14.01,2013-01-05 21:28:00,
2013-01-05 13:33:00,28.2,17.6,30.46,NE,43,2.0,4.0,64,0.00,,BKN200,0.00,339.00,VWS V14.01,2013-01-05 21:33:00,
2013-01-05 13:38:00,28.1,16.8,30.46,NNE,28,1.0,4.0,62,0.00,,BKN200,0.00,295.00,VWS V14.01,2013-01-05 21:38:00,
2013-01-05 13:43:00,28.5,17.1,30.46,NNE,28,1.0,1.0,62,0.00,,BKN200,0.00,281.00,VWS V14.01,2013-01-05 21:43:00,
2013-01-05 13:48:00,28.1,16.8,30.46,NE,41,1.0,3.0,62,0.00,,BKN200,0.00,225.00,VWS V14.01,2013-01-05 21:48:00,
2013-01-05 13:53:00,28.5,17.1,30.46,NE,40,1.0,3.0,62,0.00,,BKN200,0.00,299.00,VWS V14.01,2013-01-05 21:53:00,
2013-01-05 13:58:00,27.9,16.2,30.46,ENE,78,1.0,3.0,61,0.00,,BKN200,0.00,276.00,VWS V14.01,2013-01-05 21:58:00,
2013-01-05 14:03:00,28.1,16.4,30.46,NE,54,2.0,4.0,61,0.00,,BKN200,0.00,223.00,VWS V14.01,2013-01-05 22:03:00,
2013-01-05 14:08:00,28.0,16.7,30.46,NNE,23,4.0,4.0,62,0.00,,BKN200,0.00,192.00,VWS V14.01,2013-01-05 22:08:00,
2013-01-05 14:13:00,28.0,16.7,30.45,NNE,30,0.0,2.0,62,0.00,,BKN200,0.00,171.00,VWS V14.01,2013-01-05 22:13:00,
2013-01-05 14:18:00,28.1,16.4,30.45,ENE,65,0.0,3.0,61,0.00,,BKN200,0.00,169.00,VWS V14.01,2013-01-05 22:18:00,
2013-01-05 14:23:00,28.1,16.8,30.45,NE,41,1.0,3.0,62,0.00,,BKN200,0.00,142.00,VWS V14.01,2013-01-05 22:23:00,
2013-01-05 14:28:00,28.0,16.7,30.45,NE,56,2.0,4.0,62,0.00,,BKN200,0.00,125.00,VWS V14.01,2013-01-05 22:28:00,
2013-01-05 14:33:00,28.0,16.7,30.45,ENE,59,4.0,5.0,62,0.00,,BKN200,0.00,134.00,VWS V14.01,2013-01-05 22:33:00,
2013-01-05 14:38:00,27.9,16.6,30.45,ENE,65,1.0,3.0,62,0.00,,BKN200,0.00,142.00,VWS V14.01,2013-01-05 22:38:00,
2013-01-05 14:43:00,28.0,17.0,30.45,NE,55,3.0,4.0,63,0.00,,BKN200,0.00,132.00,VWS V14.01,2013-01-05 22:43:00,
2013-01-05 14:48:00,27.9,16.6,30.45,ENE,62,3.0,4.0,62,0.00,,BKN200,0.00,130.00,VWS V14.01,2013-01-05 22:48:00,
2013-01-05 14:53:00,27.7,16.4,30.45,NE,51,1.0,4.0,62,0.00,,BKN200,0.00,130.00,VWS V14.01,2013-01-05 22:53:00,
2013-01-05 14:58:00,27.8,16.5,30.45,NE,51,2.0,2.0,62,0.00,,BKN200,0.00,109.00,VWS V14.01,2013-01-05 22:58:00,
2013-01-05 15:03:00,27.6,16.3,30.44,NE,50,0.0,3.0,62,0.00,,OVC200,0.00,95.00,VWS V14.01,2013-01-05 23:03:00,
2013-01-05 15:08:00,27.5,16.2,30.44,NE,50,1.0,2.0,62,0.00,,OVC200,0.00,91.00,VWS V14.01,2013-01-05 23:08:00,
2013-01-05 15:13:00,27.6,16.7,30.44,ENE,77,3.0,3.0,63,0.00,,OVC200,0.00,83.00,VWS V14.01,2013-01-05 23:13:00,
2013-01-05 15:18:00,27.5,16.6,30.43,NE,47,2.0,5.0,63,0.00,,OVC200,0.00,77.00,VWS V14.01,2013-01-05 23:18:00,
2013-01-05 15:23:00,27.7,16.8,30.43,ENE,60,1.0,4.0,63,0.00,,OVC200,0.00,72.00,VWS V14.01,2013-01-05 23:23:00,
2013-01-05 15:28:00,27.5,16.6,30.43,ENE,65,3.0,4.0,63,0.00,,OVC200,0.00,70.00,VWS V14.01,2013-01-05 23:28:00,
2013-01-05 15:33:00,27.5,16.9,30.44,NE,44,2.0,3.0,64,0.00,,OVC200,0.00,67.00,VWS V14.01,2013-01-05 23:33:00,
2013-01-05 15:38:00,27.5,16.9,30.44,ENE,63,1.0,3.0,64,0.00,,OVC200,0.00,62.00,VWS V14.01,2013-01-05 23:38:00,
2013-01-05 15:43:00,27.4,16.8,30.43,ENE,74,0.0,3.0,64,0.00,,OVC200,0.00,53.00,VWS V14.01,2013-01-05 23:43:00,
2013-01-05 15:48:00,27.4,17.2,30.43,ENE,59,1.0,4.0,65,0.00,,OVC200,0.00,47.00,VWS V14.01,2013-01-05 23:48:00,
2013-01-05 15:53:00,27.4,17.2,30.43,ENE,59,0.0,1.0,65,0.00,,OVC200,0.00,44.00,VWS V14.01,2013-01-05 23:53:00,
2013-01-05 15:58:00,27.2,17.0,30.43,ENE,59,1.0,2.0,65,0.00,,OVC200,0.00,39.00,VWS V14.01,2013-01-05 23:58:00,
2013-01-05 16:03:00,27.2,17.0,30.43,ENE,59,0.0,2.0,65,0.00,,OVC200,0.00,39.00,VWS V14.01,2013-01-06 00:03:00,
2013-01-05 16:08:00,27.1,16.9,30.43,ENE,59,1.0,3.0,65,0.00,,OVC200,0.00,33.00,VWS V14.01,2013-01-06 00:08:00,
2013-01-05 16:13:00,27.1,16.9,30.43,ENE,59,0.0,1.0,65,0.00,,OVC200,0.00,28.00,VWS V14.01,2013-01-06 00:13:00,
2013-01-05 16:18:00,27.1,16.9,30.43,ENE,59,0.0,1.0,65,0.00,,OVC200,0.00,23.00,VWS V14.01,2013-01-06 00:18:00,
2013-01-05 16:23:00,27.1,16.9,30.43,ENE,59,1.0,1.0,65,0.00,,OVC200,0.00,18.00,VWS V14.01,2013-01-06 00:23:00,
2013-01-05 16:28:00,27.1,16.9,30.42,ENE,59,0.0,1.0,65,0.00,,OVC200,0.00,12.00,VWS V14.01,2013-01-06 00:28:00,
2013-01-05 16:33:00,27.0,17.2,30.42,ENE,59,0.0,2.0,66,0.00,,OVC200,0.00,9.00,VWS V14.01,2013-01-06 00:33:00,
2013-01-05 16:38:00,26.8,17.0,30.42,ENE,59,0.0,1.0,66,0.00,,OVC200,0.00,5.00,VWS V14.01,2013-01-06 00:38:00,
2013-01-05 16:43:00,26.6,16.8,30.42,ENE,59,0.0,2.0,66,0.00,,OVC200,0.00,0.00,VWS V14.01,2013-01-06 00:43:00,
2013-01-05 16:48:00,26.5,17.0,30.42,ENE,59,0.0,1.0,67,0.00,,OVC200,0.00,0.00,VWS V14.01,2013-01-06 00:48:00,
2013-01-05 16:53:00,26.3,16.9,30.42,ENE,59,0.0,1.0,67,0.00,,OVC200,0.00,0.00,VWS V14.01,2013-01-06 00:53:00,
2013-01-05 16:58:00,26.2,17.1,30.42,ENE,59,0.0,1.0,68,0.00,,OVC200,0.00,0.00,VWS V14.01,2013-01-06 00:58:00,
2013-01-05 17:03:00,26.2,17.1,30.42,ENE,59,0.0,0.0,68,0.00,,OVC200,0.00,0.00,VWS V14.01,2013-01-06 01:03:00,
2013-01-05 17:08:00,26.2,17.1,30.42,ENE,59,0.0,0.0,68,0.00,,OVC200,0.00,0.00,VWS V14.01,2013-01-06 01:08:00,
2013-01-05 17:13:00,26.1,17.0,30.42,ENE,59,0.0,0.0,68,0.00,,OVC200,0.00,0.00,VWS V14.01,2013-01-06 01:13:00,
2013-01-05 17:18:00,26.1,17.3,30.42,ENE,59,0.0,0.0,69,0.00,,OVC200,0.00,0.00,VWS V14.01,2013-01-06 01:18:00,
2013-01-05 17:23:00,26.0,17.6,30.42,ENE,59,0.0,0.0,70,0.00,,OVC200,0.00,0.00,VWS V14.01,2013-01-06 01:23:00,
2013-01-05 17:28:00,26.0,17.6,30.42,ENE,59,0.0,0.0,70,0.00,,OVC200,0.00,0.00,VWS V14.01,2013-01-06 01:28:00,
2013-01-05 17:33:00,25.9,17.5,30.42,ENE,59,0.0,0.0,70,0.00,,OVC200,0.00,0.00,VWS V14.01,2013-01-06 01:33:00,
2013-01-05 17:38:00,25.9,17.5,30.42,ENE,59,0.0,0.0,70,0.00,,OVC200,0.00,0.00,VWS V14.01,2013-01-06 01:38:00,
2013-01-05 17:43:00,25.8,17.7,30.42,ENE,59,0.0,0.0,71,0.00,,OVC200,0.00,0.00,VWS V14.01,2013-01-06 01:43:00,
2013-01-05 17:48:00,25.7,17.6,30.42,ENE,59,0.0,0.0,71,0.00,,OVC200,0.00,0.00,VWS V14.01,2013-01-06 01:48:00,
2013-01-05 17:53:00,25.7,17.6,30.42,ENE,59,0.0,0.0,71,0.00,,OVC200,0.00,0.00,VWS V14.01,2013-01-06 01:53:00,
2013-01-05 17:58:00,25.6,17.8,30.42,ENE,59,0.0,0.0,72,0.00,,OVC200,0.00,0.00,VWS V14.01,2013-01-06 01:58:00,
2013-01-05 18:03:00,25.5,17.8,30.42,ENE,59,0.0,0.0,72,0.00,,OVC200,0.00,0.00,VWS V14.01,2013-01-06 02:03:00,
2013-01-05 18:08:00,25.4,17.6,30.41,ENE,59,0.0,0.0,72,0.00,,OVC200,0.00,0.00,VWS V14.01,2013-01-06 02:08:00,
2013-01-05 18:13:00,25.3,17.9,30.42,ENE,59,0.0,0.0,73,0.00,,OVC200,0.00,0.00,VWS V14.01,2013-01-06 02:13:00,
2013-01-05 18:18:00,25.2,17.8,30.41,ENE,59,0.0,0.0,73,0.00,,OVC200,0.00,0.00,VWS V14.01,2013-01-06 02:18:00,
2013-01-05 18:23:00,25.1,17.7,30.41,ENE,59,0.0,0.0,73,0.00,,OVC200,0.00,0.00,VWS V14.01,2013-01-06 02:23:00,
2013-01-05 18:28:00,25.0,17.6,30.41,ENE,59,0.0,1.0,73,0.00,,OVC200,0.00,0.00,VWS V14.01,2013-01-06 02:28:00,
2013-01-05 18:33:00,24.9,17.5,30.42,ENE,59,0.0,0.0,73,0.00,,OVC200,0.00,0.00,VWS V14.01,2013-01-06 02:33:00,
2013-01-05 18:38:00,24.9,17.5,30.41,ENE,59,0.0,0.0,73,0.00,,OVC200,0.00,0.00,VWS V14.01,2013-01-06 02:38:00,
2013-01-05 18:43:00,24.8,17.4,30.41,ENE,59,0.0,0.0,73,0.00,,OVC200,0.00,0.00,VWS V14.01,2013-01-06 02:43:00,
2013-01-05 18:48:00,24.7,17.3,30.41,ENE,59,0.0,0.0,73,0.00,,OVC200,0.00,0.00,VWS V14.01,2013-01-06 02:48:00,
2013-01-05 18:53:00,24.6,17.2,30.41,ENE,59,0.0,0.0,73,0.00,,OVC200,0.00,0.00,VWS V14.01,2013-01-06 02:53:00,
2013-01-05 18:58:00,24.5,17.4,30.41,ENE,59,0.0,0.0,74,0.00,,OVC200,0.00,0.00,VWS V14.01,2013-01-06 02:58:00,
2013-01-05 19:03:00,24.4,17.3,30.41,ENE,59,0.0,0.0,74,0.00,,CLR,0.00,0.00,VWS V14.01,2013-01-06 03:03:00,
2013-01-05 19:08:00,24.4,17.3,30.41,ENE,59,0.0,0.0,74,0.00,,CLR,0.00,0.00,VWS V14.01,2013-01-06 03:08:00,
2013-01-05 19:13:00,24.3,17.2,30.41,East,84,0.0,3.0,74,0.00,,CLR,0.00,0.00,VWS V14.01,2013-01-06 03:13:00,
2013-01-05 19:18:00,24.2,17.1,30.41,East,84,1.0,2.0,74,0.00,,CLR,0.00,0.00,VWS V14.01,2013-01-06 03:18:00,
2013-01-05 19:23:00,24.1,17.0,30.41,East,84,0.0,1.0,74,0.00,,CLR,0.00,0.00,VWS V14.01,2013-01-06 03:23:00,
2013-01-05 19:28:00,24.0,16.9,30.41,East,84,0.0,2.0,74,0.00,,CLR,0.00,0.00,VWS V14.01,2013-01-06 03:28:00,
2013-01-05 19:33:00,23.9,16.8,30.41,East,84,1.0,2.0,74,0.00,,CLR,0.00,0.00,VWS V14.01,2013-01-06 03:33:00,
2013-01-05 19:38:00,23.7,16.3,30.40,East,84,0.0,2.0,73,0.00,,CLR,0.00,0.00,VWS V14.01,2013-01-06 03:38:00,
2013-01-05 19:43:00,23.6,16.2,30.40,East,82,2.0,3.0,73,0.00,,CLR,0.00,0.00,VWS V14.01,2013-01-06 03:43:00,
2013-01-05 19:48:00,23.4,16.0,30.40,East,80,1.0,2.0,73,0.00,,CLR,0.00,0.00,VWS V14.01,2013-01-06 03:48:00,
2013-01-05 19:53:00,23.2,15.8,30.40,East,80,0.0,1.0,73,0.00,,CLR,0.00,0.00,VWS V14.01,2013-01-06 03:53:00,
2013-01-05 19:58:00,23.0,16.0,30.40,East,80,0.0,1.0,74,0.00,,CLR,0.00,0.00,VWS V14.01,2013-01-06 03:58:00,
2013-01-05 20:03:00,22.9,15.9,30.40,ENE,78,0.0,2.0,74,0.00,,CLR,0.00,0.00,VWS V14.01,2013-01-06 04:03:00,
2013-01-05 20:08:00,22.7,16.0,30.39,ENE,69,0.0,3.0,75,0.00,,CLR,0.00,0.00,VWS V14.01,2013-01-06 04:08:00,
2013-01-05 20:13:00,22.5,15.8,30.39,ENE,69,0.0,1.0,75,0.00,,CLR,0.00,0.00,VWS V14.01,2013-01-06 04:13:00,
2013-01-05 20:18:00,22.5,16.1,30.39,ENE,67,1.0,2.0,76,0.00,,CLR,0.00,0.00,VWS V14.01,2013-01-06 04:18:00,
2013-01-05 20:23:00,22.4,16.0,30.39,ENE,73,1.0,2.0,76,0.00,,CLR,0.00,0.00,VWS V14.01,2013-01-06 04:23:00,
2013-01-05 20:28:00,22.4,16.0,30.39,ENE,76,0.0,2.0,76,0.00,,CLR,0.00,0.00,VWS V14.01,2013-01-06 04:28:00,
2013-01-05 20:33:00,22.4,16.0,30.39,ENE,76,0.0,1.0,76,0.00,,CLR,0.00,0.00,VWS V14.01,2013-01-06 04:33:00,
2013-01-05 20:39:00,22.3,15.9,30.40,ENE,76,0.0,1.0,76,0.00,,CLR,0.00,0.00,VWS V14.01,2013-01-06 04:39:00,
2013-01-05 20:44:00,22.2,16.1,30.40,ENE,76,0.0,0.0,77,0.00,,CLR,0.00,0.00,VWS V14.01,2013-01-06 04:44:00,
2013-01-05 20:49:00,22.2,16.1,30.39,ENE,76,0.0,1.0,77,0.00,,CLR,0.00,0.00,VWS V14.01,2013-01-06 04:49:00,
2013-01-05 20:54:00,22.1,16.0,30.39,ENE,76,1.0,2.0,77,0.00,,CLR,0.00,0.00,VWS V14.01,2013-01-06 04:54:00,
2013-01-05 20:59:00,22.0,16.2,30.39,ENE,76,1.0,2.0,78,0.00,,CLR,0.00,0.00,VWS V14.01,2013-01-06 04:59:00,
2013-01-05 21:00:00,22.0,16.2,30.39,ENE,76,0.0,2.0,78,0.00,,CLR,0.00,0.00,VWS V14.01,2013-01-06 05:00:00,
2013-01-05 21:01:00,22.0,16.2,30.39,ENE,76,0.0,0.0,78,0.00,,CLR,0.00,0.00,VWS V14.01,2013-01-06 05:01:00,
2013-01-05 21:05:00,22.0,16.2,30.39,ENE,76,0.0,1.0,78,0.00,,CLR,0.00,0.00,VWS V14.01,2013-01-06 05:05:00,
2013-01-05 21:10:00,22.0,16.5,30.39,ENE,76,0.0,0.0,79,0.00,,CLR,0.00,0.00,VWS V14.01,2013-01-06 05:10:00,
2013-01-05 21:15:00,22.0,16.5,30.39,ENE,76,1.0,1.0,79,0.00,,CLR,0.00,0.00,VWS V14.01,2013-01-06 05:15:00,
2013-01-05 21:20:00,22.0,16.5,30.39,ENE,76,0.0,0.0,79,0.00,,CLR,0.00,0.00,VWS V14.01,2013-01-06 05:20:00,
2013-01-05 21:25:00,22.0,16.5,30.39,ENE,76,0.0,0.0,79,0.00,,CLR,0.00,0.00,VWS V14.01,2013-01-06 05:25:00,
2013-01-05 21:30:00,22.0,16.5,30.39,ENE,76,0.0,0.0,79,0.00,,CLR,0.00,0.00,VWS V14.01,2013-01-06 05:30:00,
2013-01-05 21:35:00,21.9,16.4,30.39,ENE,76,0.0,0.0,79,0.00,,CLR,0.00,0.00,VWS V14.01,2013-01-06 05:35:00,
2013-01-05 21:40:00,21.9,16.4,30.39,ENE,76,0.0,0.0,79,0.00,,CLR,0.00,0.00,VWS V14.01,2013-01-06 05:40:00,
2013-01-05 21:45:00,21.9,16.4,30.38,ENE,76,0.0,1.0,79,0.00,,CLR,0.00,0.00,VWS V14.01,2013-01-06 05:45:00,
2013-01-05 21:50:00,21.9,16.4,30.38,ENE,76,0.0,0.0,79,0.00,,CLR,0.00,0.00,VWS V14.01,2013-01-06 05:50:00,
2013-01-05 21:55:00,21.8,16.3,30.38,ENE,76,0.0,0.0,79,0.00,,CLR,0.00,0.00,VWS V14.01,2013-01-06 05:55:00,
2013-01-05 22:00:00,21.8,16.3,30.39,ENE,76,0.0,0.0,79,0.00,,CLR,0.00,0.00,VWS V14.01,2013-01-06 06:00:00,
2013-01-05 22:05:00,21.8,16.3,30.39,ENE,76,0.0,0.0,79,0.00,,CLR,0.00,0.00,VWS V14.01,2013-01-06 06:05:00,
2013-01-05 22:10:00,21.8,16.3,30.39,ENE,76,0.0,0.0,79,0.00,,CLR,0.00,0.00,VWS V14.01,2013-01-06 06:10:00,
2013-01-05 22:15:00,21.7,16.2,30.38,ENE,76,0.0,0.0,79,0.00,,CLR,0.00,0.00,VWS V14.01,2013-01-06 06:15:00,
2013-01-05 22:20:00,21.8,16.3,30.38,ENE,76,0.0,1.0,79,0.00,,CLR,0.00,0.00,VWS V14.01,2013-01-06 06:20:00,
2013-01-05 22:25:00,21.8,16.3,30.38,ENE,76,0.0,0.0,79,0.00,,CLR,0.00,0.00,VWS V14.01,2013-01-06 06:25:00,
2013-01-05 22:30:00,21.8,16.3,30.38,ENE,76,1.0,2.0,79,0.00,,CLR,0.00,0.00,VWS V14.01,2013-01-06 06:30:00,
2013-01-05 22:35:00,21.7,15.9,30.38,ENE,75,0.0,1.0,78,0.00,,CLR,0.00,0.00,VWS V14.01,2013-01-06 06:35:00,
2013-01-05 22:40:00,21.7,15.9,30.38,NNE,24,2.0,3.0,78,0.00,,CLR,0.00,0.00,VWS V14.01,2013-01-06 06:40:00,
2013-01-05 22:45:00,21.6,15.8,30.38,NE,36,1.0,2.0,78,0.00,,CLR,0.00,0.00,VWS V14.01,2013-01-06 06:45:00,
2013-01-05 22:50:00,21.6,15.8,30.37,NE,36,0.0,1.0,78,0.00,,CLR,0.00,0.00,VWS V14.01,2013-01-06 06:50:00,
2013-01-05 22:55:00,21.6,15.8,30.36,NE,36,0.0,0.0,78,0.00,,CLR,0.00,0.00,VWS V14.01,2013-01-06 06:55:00,
2013-01-05 23:00:00,21.7,15.9,30.36,NE,36,0.0,0.0,78,0.00,,CLR,0.00,0.00,VWS V14.01,2013-01-06 07:00:00,
2013-01-05 23:05:00,21.7,15.9,30.35,NE,36,4.0,4.0,78,0.00,,CLR,0.00,0.00,VWS V14.01,2013-01-06 07:05:00,
2013-01-05 23:10:00,21.6,15.8,30.35,NNE,31,2.0,2.0,78,0.00,,CLR,0.00,0.00,VWS V14.01,2013-01-06 07:10:00,